sensor_id;sensor_type;location;lat;lon;timestamp;pressure;altitude;pressure_sealevel;temperature;humidity
13765;BME280;6953;48.810;9.204;2022-08-21T00:00:37;98851.50;;;17.83;100.00
13765;BME280;6953;48.810;9.204;2022-08-21T00:03:06;98782.50;;;17.39;100.00
13765;BME280;6953;48.810;9.204;2022-08-21T00:05:35;98848.13;;;17.81;100.00
13765;BME280;6953;48.810;9.204;2022-08-21T00:08:01;98850.16;;;17.77;100.00
13765;BME280;6953;48.810;9.204;2022-08-21T00:10:26;98751.72;;;17.15;100.00
13765;BME280;6953;48.810;9.204;2022-08-21T00:12:52;98850.25;;;17.65;100.00
13765;BME280;6953;48.810;9.204;2022-08-21T00:15:22;98732.78;;;16.97;100.00
13765;BME280;6953;48.810;9.204;2022-08-21T00:17:47;98836.41;;;17.51;100.00
13765;BME280;6953;48.810;9.204;2022-08-21T00:20:15;98845.69;;;17.56;100.00
13765;BME280;6953;48.810;9.204;2022-08-21T00:22:41;98820.84;;;17.46;100.00
13765;BME280;6953;48.810;9.204;2022-08-21T00:25:07;98767.03;;;17.11;100.00
13765;BME280;6953;48.810;9.204;2022-08-21T00:27:33;98747.47;;;16.90;100.00
13765;BME280;6953;48.810;9.204;2022-08-21T00:29:59;98842.78;;;17.37;100.00
13765;BME280;6953;48.810;9.204;2022-08-21T00:32:26;98842.28;;;17.32;100.00
13765;BME280;6953;48.810;9.204;2022-08-21T00:34:52;98763.97;;;16.83;100.00
13765;BME280;6953;48.810;9.204;2022-08-21T00:37:18;98847.94;;;17.28;100.00
13765;BME280;6953;48.810;9.204;2022-08-21T00:39:44;98713.94;;;16.57;100.00
13765;BME280;6953;48.810;9.204;2022-08-21T00:42:11;98842.44;;;17.31;100.00
13765;BME280;6953;48.810;9.204;2022-08-21T00:44:43;98759.50;;;16.83;100.00
13765;BME280;6953;48.810;9.204;2022-08-21T00:47:09;98770.72;;;16.87;100.00
13765;BME280;6953;48.810;9.204;2022-08-21T00:49:36;98838.31;;;17.38;100.00
13765;BME280;6953;48.810;9.204;2022-08-21T00:52:03;98838.94;;;17.41;100.00
13765;BME280;6953;48.810;9.204;2022-08-21T00:54:31;98836.03;;;17.44;100.00
13765;BME280;6953;48.810;9.204;2022-08-21T00:57:00;98837.72;;;17.45;100.00
13765;BME280;6953;48.810;9.204;2022-08-21T00:59:27;98801.56;;;17.33;100.00
13765;BME280;6953;48.810;9.204;2022-08-21T01:01:54;98832.06;;;17.50;100.00
13765;BME280;6953;48.810;9.204;2022-08-21T01:04:20;98804.34;;;17.32;100.00
13765;BME280;6953;48.810;9.204;2022-08-21T01:06:46;98796.09;;;17.24;100.00
13765;BME280;6953;48.810;9.204;2022-08-21T01:09:13;98732.44;;;16.91;100.00
13765;BME280;6953;48.810;9.204;2022-08-21T01:11:39;98799.56;;;17.24;100.00
13765;BME280;6953;48.810;9.204;2022-08-21T01:14:05;98835.50;;;17.28;100.00
13765;BME280;6953;48.810;9.204;2022-08-21T01:16:30;98828.50;;;17.16;100.00
13765;BME280;6953;48.810;9.204;2022-08-21T01:18:56;98714.38;;;16.40;100.00
13765;BME280;6953;48.810;9.204;2022-08-21T01:21:23;98837.88;;;17.09;100.00
13765;BME280;6953;48.810;9.204;2022-08-21T01:23:52;98834.13;;;17.01;100.00
13765;BME280;6953;48.810;9.204;2022-08-21T01:26:21;98814.81;;;16.88;100.00
13765;BME280;6953;48.810;9.204;2022-08-21T01:29:30;98792.47;;;16.68;100.00
13765;BME280;6953;48.810;9.204;2022-08-21T01:31:48;98769.28;;;16.49;100.00
13765;BME280;6953;48.810;9.204;2022-08-21T01:34:14;98832.16;;;16.81;100.00
13765;BME280;6953;48.810;9.204;2022-08-21T01:36:41;98783.50;;;16.48;100.00
13765;BME280;6953;48.810;9.204;2022-08-21T01:39:07;98823.91;;;16.73;100.00
13765;BME280;6953;48.810;9.204;2022-08-21T01:41:32;98814.38;;;16.60;100.00
13765;BME280;6953;48.810;9.204;2022-08-21T01:43:58;98808.34;;;16.58;100.00
13765;BME280;6953;48.810;9.204;2022-08-21T01:46:23;98722.94;;;15.96;100.00
13765;BME280;6953;48.810;9.204;2022-08-21T01:48:49;98818.44;;;16.53;100.00
13765;BME280;6953;48.810;9.204;2022-08-21T01:51:14;98826.00;;;16.46;100.00
13765;BME280;6953;48.810;9.204;2022-08-21T01:53:40;98827.41;;;16.39;100.00
13765;BME280;6953;48.810;9.204;2022-08-21T01:56:09;98828.16;;;16.29;100.00
13765;BME280;6953;48.810;9.204;2022-08-21T01:58:35;98758.13;;;15.86;100.00
13765;BME280;6953;48.810;9.204;2022-08-21T02:01:01;98711.06;;;15.55;100.00
13765;BME280;6953;48.810;9.204;2022-08-21T02:03:28;98798.13;;;16.17;100.00
13765;BME280;6953;48.810;9.204;2022-08-21T02:05:54;98831.16;;;16.24;100.00
13765;BME280;6953;48.810;9.204;2022-08-21T02:08:20;98716.00;;;15.60;100.00
13765;BME280;6953;48.810;9.204;2022-08-21T02:10:49;98710.38;;;15.64;100.00
13765;BME280;6953;48.810;9.204;2022-08-21T02:13:15;98740.47;;;15.86;100.00
13765;BME280;6953;48.810;9.204;2022-08-21T02:15:40;98811.00;;;16.22;100.00
13765;BME280;6953;48.810;9.204;2022-08-21T02:18:06;98827.75;;;16.35;100.00
13765;BME280;6953;48.810;9.204;2022-08-21T02:20:38;98708.66;;;15.75;100.00
13765;BME280;6953;48.810;9.204;2022-08-21T02:23:05;98809.53;;;16.30;100.00
13765;BME280;6953;48.810;9.204;2022-08-21T02:25:31;98805.50;;;16.25;100.00
13765;BME280;6953;48.810;9.204;2022-08-21T02:27:58;98789.44;;;16.15;100.00
13765;BME280;6953;48.810;9.204;2022-08-21T02:30:27;98811.72;;;16.36;100.00
13765;BME280;6953;48.810;9.204;2022-08-21T02:32:54;98654.41;;;15.47;100.00
13765;BME280;6953;48.810;9.204;2022-08-21T02:35:21;98812.28;;;16.29;100.00
13765;BME280;6953;48.810;9.204;2022-08-21T02:38:07;98817.00;;;16.13;100.00
13765;BME280;6953;48.810;9.204;2022-08-21T02:40:35;98773.56;;;15.92;100.00
13765;BME280;6953;48.810;9.204;2022-08-21T02:43:03;98813.41;;;16.14;100.00
13765;BME280;6953;48.810;9.204;2022-08-21T02:45:29;98804.50;;;16.15;100.00
13765;BME280;6953;48.810;9.204;2022-08-21T02:48:03;98744.91;;;15.86;100.00
13765;BME280;6953;48.810;9.204;2022-08-21T02:50:37;98816.28;;;16.11;100.00
13765;BME280;6953;48.810;9.204;2022-08-21T02:53:04;98804.13;;;16.08;100.00
13765;BME280;6953;48.810;9.204;2022-08-21T02:55:31;98790.91;;;15.96;100.00
13765;BME280;6953;48.810;9.204;2022-08-21T02:57:58;98836.88;;;15.95;100.00
13765;BME280;6953;48.810;9.204;2022-08-21T03:00:26;98812.88;;;15.85;100.00
13765;BME280;6953;48.810;9.204;2022-08-21T03:02:53;98775.56;;;15.53;100.00
13765;BME280;6953;48.810;9.204;2022-08-21T03:05:20;98703.63;;;15.12;100.00
13765;BME280;6953;48.810;9.204;2022-08-21T03:07:46;98707.00;;;15.14;100.00
13765;BME280;6953;48.810;9.204;2022-08-21T03:10:13;98797.56;;;15.65;100.00
13765;BME280;6953;48.810;9.204;2022-08-21T03:12:38;98805.91;;;15.72;100.00
13765;BME280;6953;48.810;9.204;2022-08-21T03:15:06;98806.72;;;15.85;100.00
13765;BME280;6953;48.810;9.204;2022-08-21T03:17:32;98830.84;;;15.93;100.00
13765;BME280;6953;48.810;9.204;2022-08-21T03:19:58;98810.28;;;15.96;100.00
13765;BME280;6953;48.810;9.204;2022-08-21T03:22:23;98784.25;;;15.90;100.00
13765;BME280;6953;48.810;9.204;2022-08-21T03:24:49;98716.66;;;15.51;100.00
13765;BME280;6953;48.810;9.204;2022-08-21T03:27:15;98791.41;;;16.01;100.00
13765;BME280;6953;48.810;9.204;2022-08-21T03:29:40;98805.06;;;16.07;100.00
13765;BME280;6953;48.810;9.204;2022-08-21T03:32:06;98810.66;;;16.03;100.00
13765;BME280;6953;48.810;9.204;2022-08-21T03:34:35;98811.59;;;16.14;100.00
13765;BME280;6953;48.810;9.204;2022-08-21T03:37:00;98815.91;;;16.15;100.00
13765;BME280;6953;48.810;9.204;2022-08-21T03:39:25;98701.75;;;15.50;100.00
13765;BME280;6953;48.810;9.204;2022-08-21T03:41:51;98753.53;;;15.77;100.00
13765;BME280;6953;48.810;9.204;2022-08-21T03:44:17;98810.28;;;15.96;100.00
13765;BME280;6953;48.810;9.204;2022-08-21T03:46:42;98816.22;;;16.00;100.00
13765;BME280;6953;48.810;9.204;2022-08-21T03:49:08;98837.25;;;16.01;100.00
13765;BME280;6953;48.810;9.204;2022-08-21T03:51:33;98721.47;;;15.46;100.00
13765;BME280;6953;48.810;9.204;2022-08-21T03:54:00;98821.16;;;16.04;100.00
13765;BME280;6953;48.810;9.204;2022-08-21T03:56:26;98726.63;;;15.47;100.00
13765;BME280;6953;48.810;9.204;2022-08-21T03:58:51;98793.25;;;15.88;100.00
13765;BME280;6953;48.810;9.204;2022-08-21T04:01:16;98744.50;;;15.56;100.00
13765;BME280;6953;48.810;9.204;2022-08-21T04:03:42;98724.19;;;15.44;100.00
13765;BME280;6953;48.810;9.204;2022-08-21T04:06:07;98831.34;;;15.98;100.00
13765;BME280;6953;48.810;9.204;2022-08-21T04:08:33;98824.34;;;16.09;100.00
13765;BME280;6953;48.810;9.204;2022-08-21T04:10:59;98815.88;;;16.04;100.00
13765;BME280;6953;48.810;9.204;2022-08-21T04:13:25;98813.22;;;16.04;100.00
13765;BME280;6953;48.810;9.204;2022-08-21T04:15:53;98783.38;;;15.79;100.00
13765;BME280;6953;48.810;9.204;2022-08-21T04:18:19;98712.59;;;15.34;100.00
13765;BME280;6953;48.810;9.204;2022-08-21T04:20:46;98770.47;;;15.62;100.00
13765;BME280;6953;48.810;9.204;2022-08-21T04:23:13;98848.00;;;15.87;100.00
13765;BME280;6953;48.810;9.204;2022-08-21T04:25:38;98764.75;;;15.32;100.00
13765;BME280;6953;48.810;9.204;2022-08-21T04:28:04;98845.81;;;15.69;100.00
13765;BME280;6953;48.810;9.204;2022-08-21T04:30:29;98737.56;;;15.05;100.00
13765;BME280;6953;48.810;9.204;2022-08-21T04:32:56;98846.53;;;15.71;100.00
13765;BME280;6953;48.810;9.204;2022-08-21T04:35:23;98856.19;;;15.72;100.00
13765;BME280;6953;48.810;9.204;2022-08-21T04:37:48;98837.47;;;15.63;100.00
13765;BME280;6953;48.810;9.204;2022-08-21T04:40:16;98849.00;;;15.62;100.00
13765;BME280;6953;48.810;9.204;2022-08-21T04:42:45;98866.34;;;15.65;100.00
13765;BME280;6953;48.810;9.204;2022-08-21T04:45:28;98754.69;;;15.00;100.00
13765;BME280;6953;48.810;9.204;2022-08-21T04:47:56;98862.00;;;15.64;100.00
13765;BME280;6953;48.810;9.204;2022-08-21T04:50:24;98860.19;;;15.65;100.00
13765;BME280;6953;48.810;9.204;2022-08-21T04:52:51;98869.75;;;15.67;100.00
13765;BME280;6953;48.810;9.204;2022-08-21T04:55:17;98862.09;;;15.75;100.00
13765;BME280;6953;48.810;9.204;2022-08-21T04:57:44;98869.59;;;15.81;100.00
13765;BME280;6953;48.810;9.204;2022-08-21T05:00:10;98865.44;;;15.90;100.00
13765;BME280;6953;48.810;9.204;2022-08-21T05:02:38;98810.16;;;15.62;100.00
13765;BME280;6953;48.810;9.204;2022-08-21T05:05:04;98805.28;;;15.68;100.00
13765;BME280;6953;48.810;9.204;2022-08-21T05:07:31;98796.81;;;15.76;100.00
13765;BME280;6953;48.810;9.204;2022-08-21T05:09:56;98787.78;;;15.78;100.00
13765;BME280;6953;48.810;9.204;2022-08-21T05:12:24;98832.03;;;16.12;100.00
13765;BME280;6953;48.810;9.204;2022-08-21T05:14:49;98779.22;;;15.87;100.00
13765;BME280;6953;48.810;9.204;2022-08-21T05:17:15;98874.66;;;16.56;100.00
13765;BME280;6953;48.810;9.204;2022-08-21T05:19:40;98876.66;;;16.65;100.00
13765;BME280;6953;48.810;9.204;2022-08-21T05:22:06;98883.47;;;16.80;100.00
13765;BME280;6953;48.810;9.204;2022-08-21T05:24:32;98820.72;;;16.57;100.00
13765;BME280;6953;48.810;9.204;2022-08-21T05:26:57;98827.03;;;16.67;100.00
13765;BME280;6953;48.810;9.204;2022-08-21T05:29:23;98890.56;;;17.14;100.00
13765;BME280;6953;48.810;9.204;2022-08-21T05:31:49;98830.16;;;16.95;100.00
13765;BME280;6953;48.810;9.204;2022-08-21T05:34:18;98834.88;;;17.14;100.00
13765;BME280;6953;48.810;9.204;2022-08-21T05:36:44;98831.22;;;17.49;100.00
13765;BME280;6953;48.810;9.204;2022-08-21T05:39:09;98887.94;;;18.56;100.00
13765;BME280;6953;48.810;9.204;2022-08-21T05:41:35;98826.94;;;19.06;96.62
13765;BME280;6953;48.810;9.204;2022-08-21T05:44:00;98888.38;;;20.15;90.35
13765;BME280;6953;48.810;9.204;2022-08-21T05:46:26;98804.97;;;20.24;86.05
13765;BME280;6953;48.810;9.204;2022-08-21T05:48:51;98812.16;;;20.80;83.09
13765;BME280;6953;48.810;9.204;2022-08-21T05:51:16;98800.56;;;21.36;80.08
13765;BME280;6953;48.810;9.204;2022-08-21T05:53:43;98866.84;;;22.32;76.61
13765;BME280;6953;48.810;9.204;2022-08-21T05:56:10;98896.38;;;22.85;73.29
13765;BME280;6953;48.810;9.204;2022-08-21T05:58:35;98896.31;;;23.29;71.20
13765;BME280;6953;48.810;9.204;2022-08-21T06:01:03;98897.56;;;24.11;67.45
13765;BME280;6953;48.810;9.204;2022-08-21T06:03:33;98886.22;;;24.58;65.42
13765;BME280;6953;48.810;9.204;2022-08-21T06:06:00;98709.31;;;23.91;62.49
13765;BME280;6953;48.810;9.204;2022-08-21T06:08:26;98843.88;;;25.17;60.96
13765;BME280;6953;48.810;9.204;2022-08-21T06:10:53;98879.81;;;25.64;59.35
13765;BME280;6953;48.810;9.204;2022-08-21T06:13:20;98875.66;;;26.16;57.26
13765;BME280;6953;48.810;9.204;2022-08-21T06:15:47;98842.69;;;26.22;55.79
13765;BME280;6953;48.810;9.204;2022-08-21T06:18:12;98882.00;;;26.69;54.89
13765;BME280;6953;48.810;9.204;2022-08-21T06:20:38;98840.91;;;26.75;53.08
13765;BME280;6953;48.810;9.204;2022-08-21T06:23:03;98878.78;;;27.26;51.86
13765;BME280;6953;48.810;9.204;2022-08-21T06:25:29;98791.41;;;27.21;50.24
13765;BME280;6953;48.810;9.204;2022-08-21T06:28:08;98906.16;;;28.55;48.04
13765;BME280;6953;48.810;9.204;2022-08-21T06:30:34;98887.50;;;28.74;46.64
13765;BME280;6953;48.810;9.204;2022-08-21T06:33:01;98883.56;;;28.76;46.57
13765;BME280;6953;48.810;9.204;2022-08-21T06:35:27;98881.50;;;28.93;45.96
13765;BME280;6953;48.810;9.204;2022-08-21T06:37:54;98869.56;;;29.23;44.97
13765;BME280;6953;48.810;9.204;2022-08-21T06:40:19;98809.53;;;29.55;43.31
13765;BME280;6953;48.810;9.204;2022-08-21T06:42:45;98807.09;;;29.93;42.16
13765;BME280;6953;48.810;9.204;2022-08-21T06:45:10;98849.97;;;30.24;42.32
13765;BME280;6953;48.810;9.204;2022-08-21T06:47:35;98798.22;;;30.46;40.84
13765;BME280;6953;48.810;9.204;2022-08-21T06:50:01;98817.28;;;30.78;39.71
13765;BME280;6953;48.810;9.204;2022-08-21T06:52:26;98778.13;;;31.00;38.96
13765;BME280;6953;48.810;9.204;2022-08-21T06:54:51;98808.03;;;31.59;38.01
13765;BME280;6953;48.810;9.204;2022-08-21T06:57:17;98877.50;;;32.24;37.06
13765;BME280;6953;48.810;9.204;2022-08-21T06:59:42;98881.22;;;32.36;36.14
13765;BME280;6953;48.810;9.204;2022-08-21T07:02:07;98846.09;;;32.41;36.28
13765;BME280;6953;48.810;9.204;2022-08-21T07:04:33;98874.00;;;33.18;34.90
13765;BME280;6953;48.810;9.204;2022-08-21T07:06:58;98844.56;;;33.02;34.18
13765;BME280;6953;48.810;9.204;2022-08-21T07:09:24;98876.66;;;33.24;33.69
13765;BME280;6953;48.810;9.204;2022-08-21T07:11:52;98875.69;;;33.43;33.41
13765;BME280;6953;48.810;9.204;2022-08-21T07:14:18;98877.97;;;33.53;33.23
13765;BME280;6953;48.810;9.204;2022-08-21T07:16:43;98807.66;;;33.19;32.45
13765;BME280;6953;48.810;9.204;2022-08-21T07:19:09;98879.69;;;33.96;32.04
13765;BME280;6953;48.810;9.204;2022-08-21T07:21:34;98872.19;;;34.52;31.72
13765;BME280;6953;48.810;9.204;2022-08-21T07:23:59;98864.59;;;34.90;30.38
13765;BME280;6953;48.810;9.204;2022-08-21T07:26:25;98885.44;;;35.84;28.69
13765;BME280;6953;48.810;9.204;2022-08-21T07:28:51;98851.06;;;35.53;28.98
13765;BME280;6953;48.810;9.204;2022-08-21T07:31:18;98838.19;;;35.31;28.76
13765;BME280;6953;48.810;9.204;2022-08-21T07:33:44;98864.78;;;35.76;28.24
13765;BME280;6953;48.810;9.204;2022-08-21T07:36:10;98848.25;;;36.40;27.55
13765;BME280;6953;48.810;9.204;2022-08-21T07:38:36;98838.16;;;36.52;27.29
13765;BME280;6953;48.810;9.204;2022-08-21T07:41:04;98818.56;;;36.21;27.36
13765;BME280;6953;48.810;9.204;2022-08-21T07:43:31;98832.84;;;36.11;27.36
13765;BME280;6953;48.810;9.204;2022-08-21T07:45:57;98870.69;;;36.76;26.99
13765;BME280;6953;48.810;9.204;2022-08-21T07:48:22;98837.22;;;37.14;26.24
13765;BME280;6953;48.810;9.204;2022-08-21T07:50:48;98867.59;;;37.56;26.02
13765;BME280;6953;48.810;9.204;2022-08-21T07:53:14;98865.88;;;37.51;25.86
13765;BME280;6953;48.810;9.204;2022-08-21T07:55:40;98865.69;;;37.41;25.69
13765;BME280;6953;48.810;9.204;2022-08-21T07:58:05;98804.19;;;37.48;24.94
13765;BME280;6953;48.810;9.204;2022-08-21T08:00:31;98876.34;;;38.03;24.67
13765;BME280;6953;48.810;9.204;2022-08-21T08:02:57;98859.50;;;38.27;24.48
13765;BME280;6953;48.810;9.204;2022-08-21T08:05:25;98830.72;;;38.13;24.08
13765;BME280;6953;48.810;9.204;2022-08-21T08:07:52;98857.28;;;38.88;23.89
13765;BME280;6953;48.810;9.204;2022-08-21T08:10:18;98785.28;;;39.08;22.17
13765;BME280;6953;48.810;9.204;2022-08-21T08:12:44;98795.44;;;39.65;21.87
13765;BME280;6953;48.810;9.204;2022-08-21T08:15:14;98844.44;;;40.46;21.39
13765;BME280;6953;48.810;9.204;2022-08-21T08:17:40;98869.53;;;40.54;21.69
13765;BME280;6953;48.810;9.204;2022-08-21T08:20:07;98810.06;;;40.53;20.86
13765;BME280;6953;48.810;9.204;2022-08-21T08:22:37;98631.66;;;40.35;19.53
13765;BME280;6953;48.810;9.204;2022-08-21T08:25:04;98833.75;;;42.25;18.75
13765;BME280;6953;48.810;9.204;2022-08-21T08:27:31;98879.00;;;42.39;18.84
13765;BME280;6953;48.810;9.204;2022-08-21T08:29:56;98869.22;;;42.71;18.33
13765;BME280;6953;48.810;9.204;2022-08-21T08:32:22;98826.50;;;43.12;17.90
13765;BME280;6953;48.810;9.204;2022-08-21T08:34:48;98831.06;;;43.36;17.35
13765;BME280;6953;48.810;9.204;2022-08-21T08:37:14;98857.31;;;42.76;18.32
13765;BME280;6953;48.810;9.204;2022-08-21T08:39:40;98794.25;;;42.24;18.38
13765;BME280;6953;48.810;9.204;2022-08-21T08:42:14;98844.28;;;43.01;17.33
13765;BME280;6953;48.810;9.204;2022-08-21T08:44:45;98839.94;;;42.75;17.54
13765;BME280;6953;48.810;9.204;2022-08-21T08:47:14;98827.28;;;42.64;18.26
13765;BME280;6953;48.810;9.204;2022-08-21T08:49:55;98767.94;;;42.52;17.30
13765;BME280;6953;48.810;9.204;2022-08-21T08:52:27;98834.44;;;42.80;17.96
13765;BME280;6953;48.810;9.204;2022-08-21T08:55:04;98843.38;;;43.11;17.34
13765;BME280;6953;48.810;9.204;2022-08-21T08:57:32;98836.97;;;43.97;17.35
13765;BME280;6953;48.810;9.204;2022-08-21T09:00:00;98836.25;;;44.38;16.53
13765;BME280;6953;48.810;9.204;2022-08-21T09:02:25;98847.47;;;45.17;15.35
13765;BME280;6953;48.810;9.204;2022-08-21T09:04:53;98792.53;;;45.19;15.66
13765;BME280;6953;48.810;9.204;2022-08-21T09:07:31;98845.75;;;44.79;15.62
13765;BME280;6953;48.810;9.204;2022-08-21T09:10:05;98838.47;;;44.13;16.01
13765;BME280;6953;48.810;9.204;2022-08-21T09:15:30;98834.94;;;45.01;14.95
13765;BME280;6953;48.810;9.204;2022-08-21T09:23:43;98847.97;;;47.05;14.12
13765;BME280;6953;48.810;9.204;2022-08-21T09:26:20;98842.22;;;46.61;13.25
13765;BME280;6953;48.810;9.204;2022-08-21T09:28:52;98803.59;;;46.06;14.03
13765;BME280;6953;48.810;9.204;2022-08-21T09:31:35;98839.91;;;45.77;13.56
13765;BME280;6953;48.810;9.204;2022-08-21T09:34:06;98838.69;;;46.15;13.16
13765;BME280;6953;48.810;9.204;2022-08-21T09:36:41;98835.88;;;46.61;13.82
13765;BME280;6953;48.810;9.204;2022-08-21T09:39:08;98833.13;;;47.09;13.29
13765;BME280;6953;48.810;9.204;2022-08-21T09:41:34;98770.00;;;47.10;12.45
13765;BME280;6953;48.810;9.204;2022-08-21T09:44:01;98843.28;;;46.92;12.27
13765;BME280;6953;48.810;9.204;2022-08-21T09:46:27;98753.59;;;45.92;13.09
13765;BME280;6953;48.810;9.204;2022-08-21T09:48:56;98704.84;;;45.41;13.65
13765;BME280;6953;48.810;9.204;2022-08-21T09:51:25;98803.84;;;45.91;13.63
13765;BME280;6953;48.810;9.204;2022-08-21T09:54:17;98823.72;;;46.70;12.73
13765;BME280;6953;48.810;9.204;2022-08-21T09:56:56;98763.78;;;46.91;12.45
13765;BME280;6953;48.810;9.204;2022-08-21T09:59:42;98780.13;;;46.92;12.18
13765;BME280;6953;48.810;9.204;2022-08-21T10:02:40;98820.34;;;47.57;11.57
13765;BME280;6953;48.810;9.204;2022-08-21T10:05:25;98810.63;;;48.51;11.21
13765;BME280;6953;48.810;9.204;2022-08-21T10:07:51;98756.94;;;48.37;11.57
13765;BME280;6953;48.810;9.204;2022-08-21T10:10:20;98817.78;;;48.13;11.80
13765;BME280;6953;48.810;9.204;2022-08-21T10:13:07;98820.34;;;48.31;11.94
13765;BME280;6953;48.810;9.204;2022-08-21T10:20:55;98744.25;;;47.62;11.22
13765;BME280;6953;48.810;9.204;2022-08-21T10:26:26;98788.53;;;48.63;11.29
13765;BME280;6953;48.810;9.204;2022-08-21T10:31:48;98800.47;;;49.53;10.97
13765;BME280;6953;48.810;9.204;2022-08-21T10:39:55;98791.91;;;49.24;11.21
13765;BME280;6953;48.810;9.204;2022-08-21T10:48:16;98793.09;;;49.65;10.58
13765;BME280;6953;48.810;9.204;2022-08-21T10:50:51;98797.31;;;49.03;10.77
13765;BME280;6953;48.810;9.204;2022-08-21T10:56:05;98779.25;;;49.60;10.03
13765;BME280;6953;48.810;9.204;2022-08-21T10:58:40;98779.44;;;49.13;10.46
13765;BME280;6953;48.810;9.204;2022-08-21T11:01:18;98781.94;;;49.31;10.36
13765;BME280;6953;48.810;9.204;2022-08-21T11:03:51;98763.28;;;48.68;10.21
13765;BME280;6953;48.810;9.204;2022-08-21T11:06:25;98739.56;;;49.12;9.76
13765;BME280;6953;48.810;9.204;2022-08-21T11:08:57;98708.25;;;48.34;10.19
13765;BME280;6953;48.810;9.204;2022-08-21T11:11:32;98768.53;;;48.86;10.40
13765;BME280;6953;48.810;9.204;2022-08-21T11:14:21;98758.50;;;48.21;11.04
13765;BME280;6953;48.810;9.204;2022-08-21T11:16:53;98755.50;;;48.09;10.80
13765;BME280;6953;48.810;9.204;2022-08-21T11:19:33;98747.00;;;48.22;10.68
13765;BME280;6953;48.810;9.204;2022-08-21T11:22:28;98720.13;;;48.18;10.44
13765;BME280;6953;48.810;9.204;2022-08-21T11:26:09;98739.78;;;48.13;11.11
13765;BME280;6953;48.810;9.204;2022-08-21T11:28:28;98663.59;;;47.70;11.02
13765;BME280;6953;48.810;9.204;2022-08-21T11:31:20;98690.06;;;48.45;11.06
13765;BME280;6953;48.810;9.204;2022-08-21T11:34:10;98745.28;;;48.91;10.27
13765;BME280;6953;48.810;9.204;2022-08-21T11:44:50;98719.56;;;50.65;9.25
13765;BME280;6953;48.810;9.204;2022-08-21T11:50:03;98738.00;;;51.80;8.83
13765;BME280;6953;48.810;9.204;2022-08-21T11:52:39;98739.09;;;51.99;8.59
13765;BME280;6953;48.810;9.204;2022-08-21T11:55:28;98737.22;;;51.27;8.48
13765;BME280;6953;48.810;9.204;2022-08-21T11:58:18;98648.06;;;50.35;9.29
13765;BME280;6953;48.810;9.204;2022-08-21T12:00:47;98703.38;;;50.99;9.60
13765;BME280;6953;48.810;9.204;2022-08-21T12:03:17;98721.34;;;50.69;9.11
13765;BME280;6953;48.810;9.204;2022-08-21T12:08:34;98658.13;;;50.27;9.49
13765;BME280;6953;48.810;9.204;2022-08-21T12:11:24;98728.13;;;50.60;9.48
13765;BME280;6953;48.810;9.204;2022-08-21T12:16:37;98716.00;;;48.54;10.41
13765;BME280;6953;48.810;9.204;2022-08-21T12:19:11;98707.94;;;47.97;10.27
13765;BME280;6953;48.810;9.204;2022-08-21T12:22:06;98703.94;;;47.89;10.64
13765;BME280;6953;48.810;9.204;2022-08-21T12:24:43;98708.44;;;48.46;10.57
13765;BME280;6953;48.810;9.204;2022-08-21T12:30:03;98641.94;;;42.71;14.30
13765;BME280;6953;48.810;9.204;2022-08-21T12:33:00;98665.34;;;41.12;15.12
13765;BME280;6953;48.810;9.204;2022-08-21T12:35:37;98571.13;;;40.70;15.06
13765;BME280;6953;48.810;9.204;2022-08-21T12:38:12;98609.63;;;42.28;14.35
13765;BME280;6953;48.810;9.204;2022-08-21T12:40:46;98579.97;;;43.85;13.19
13765;BME280;6953;48.810;9.204;2022-08-21T12:43:18;98607.53;;;44.37;12.90
13765;BME280;6953;48.810;9.204;2022-08-21T12:45:49;98647.22;;;45.20;12.90
13765;BME280;6953;48.810;9.204;2022-08-21T12:48:22;98651.06;;;45.82;13.01
13765;BME280;6953;48.810;9.204;2022-08-21T12:51:16;98642.41;;;46.73;11.47
13765;BME280;6953;48.810;9.204;2022-08-21T12:53:55;98631.31;;;47.69;11.01
13765;BME280;6953;48.810;9.204;2022-08-21T12:56:27;98596.56;;;47.67;10.76
13765;BME280;6953;48.810;9.204;2022-08-21T12:59:06;98668.81;;;48.66;10.34
13765;BME280;6953;48.810;9.204;2022-08-21T13:01:37;98662.41;;;48.74;9.99
13765;BME280;6953;48.810;9.204;2022-08-21T13:04:10;98662.56;;;47.96;10.42
13765;BME280;6953;48.810;9.204;2022-08-21T13:06:41;98602.78;;;47.11;10.56
13765;BME280;6953;48.810;9.204;2022-08-21T13:09:11;98624.53;;;47.31;10.73
13765;BME280;6953;48.810;9.204;2022-08-21T13:11:40;98658.13;;;47.57;10.51
13765;BME280;6953;48.810;9.204;2022-08-21T13:16:58;98666.50;;;48.60;9.85
13765;BME280;6953;48.810;9.204;2022-08-21T13:19:24;98658.41;;;48.33;10.76
13765;BME280;6953;48.810;9.204;2022-08-21T13:21:50;98654.91;;;48.10;10.48
13765;BME280;6953;48.810;9.204;2022-08-21T13:26:46;98668.34;;;49.06;9.89
13765;BME280;6953;48.810;9.204;2022-08-21T13:29:15;98671.44;;;49.30;9.36
13765;BME280;6953;48.810;9.204;2022-08-21T13:32:02;98656.84;;;48.91;9.59
13765;BME280;6953;48.810;9.204;2022-08-21T13:34:31;98629.31;;;48.98;10.01
13765;BME280;6953;48.810;9.204;2022-08-21T13:37:00;98659.50;;;48.96;9.72
13765;BME280;6953;48.810;9.204;2022-08-21T13:39:27;98663.81;;;48.38;9.81
13765;BME280;6953;48.810;9.204;2022-08-21T13:41:58;98583.34;;;47.42;10.26
13765;BME280;6953;48.810;9.204;2022-08-21T13:46:56;98643.81;;;46.84;11.10
13765;BME280;6953;48.810;9.204;2022-08-21T13:49:34;98636.34;;;46.22;11.27
13765;BME280;6953;48.810;9.204;2022-08-21T13:52:02;98604.88;;;46.49;11.25
13765;BME280;6953;48.810;9.204;2022-08-21T13:54:39;98624.19;;;47.02;10.83
13765;BME280;6953;48.810;9.204;2022-08-21T13:57:17;98631.63;;;47.15;11.07
13765;BME280;6953;48.810;9.204;2022-08-21T13:59:43;98624.25;;;47.33;10.60
13765;BME280;6953;48.810;9.204;2022-08-21T14:02:19;98622.44;;;46.49;11.37
13765;BME280;6953;48.810;9.204;2022-08-21T14:04:57;98629.66;;;46.10;11.24
13765;BME280;6953;48.810;9.204;2022-08-21T14:07:36;98631.69;;;46.45;10.90
13765;BME280;6953;48.810;9.204;2022-08-21T14:10:18;98640.19;;;46.48;10.69
13765;BME280;6953;48.810;9.204;2022-08-21T14:12:48;98600.56;;;46.21;11.19
13765;BME280;6953;48.810;9.204;2022-08-21T14:15:16;98625.41;;;46.39;11.28
13765;BME280;6953;48.810;9.204;2022-08-21T14:17:42;98597.50;;;45.95;11.59
13765;BME280;6953;48.810;9.204;2022-08-21T14:20:12;98536.44;;;45.55;11.42